createdAt,value
2018-11-02T00:01:15.908Z,7.20
2018-11-02T00:03:44.681Z,7.10
2018-11-02T00:06:13.499Z,7.20
2018-11-02T00:08:42.332Z,7.20
2018-11-02T00:11:11.097Z,7.10
2018-11-02T00:13:39.936Z,7.00
2018-11-02T00:16:08.692Z,7.00
2018-11-02T00:18:37.696Z,7.20
2018-11-02T00:21:12.793Z,7.10
2018-11-02T00:23:41.557Z,7.00
2018-11-02T00:26:10.285Z,7.00
2018-11-02T00:28:39.044Z,7.00
2018-11-02T00:31:07.836Z,7.10
2018-11-02T00:33:36.600Z,7.30
2018-11-02T00:36:05.435Z,7.30
2018-11-02T00:38:34.143Z,7.20
2018-11-02T00:41:02.869Z,7.20
2018-11-02T00:43:31.529Z,7.10
2018-11-02T00:46:00.170Z,7.00
2018-11-02T00:48:29.023Z,6.90
2018-11-02T00:50:57.749Z,6.70
2018-11-02T00:53:26.489Z,6.50
2018-11-02T00:55:55.176Z,6.40
2018-11-02T00:58:23.901Z,6.40
2018-11-02T01:00:53.095Z,6.40
2018-11-02T01:03:21.863Z,6.50
2018-11-02T01:05:50.628Z,6.50
2018-11-02T01:08:19.373Z,6.40
2018-11-02T01:10:48.082Z,6.10
2018-11-02T01:13:16.777Z,6.10
2018-11-02T01:15:45.537Z,6.00
2018-11-02T01:18:15.382Z,6.10
2018-11-02T01:20:43.969Z,6.40
2018-11-02T01:23:12.645Z,6.60
2018-11-02T01:25:41.360Z,6.70
2018-11-02T01:28:10.024Z,6.70
2018-11-02T01:30:38.746Z,7.20
2018-11-02T01:33:07.375Z,7.30
2018-11-02T01:35:36.099Z,7.30
2018-11-02T01:38:04.793Z,7.20
2018-11-02T01:40:33.500Z,7.10
2018-11-02T01:43:02.158Z,6.90
2018-11-02T01:45:30.791Z,6.80
2018-11-02T01:47:59.454Z,6.70
2018-11-02T01:50:28.181Z,6.60
2018-11-02T01:52:56.770Z,6.70
2018-11-02T01:55:25.434Z,6.60
2018-11-02T01:57:54.058Z,6.50
2018-11-02T02:00:28.741Z,6.50
2018-11-02T02:02:57.443Z,6.50
2018-11-02T02:05:26.153Z,6.50
2018-11-02T02:07:54.900Z,6.40
2018-11-02T02:10:23.586Z,6.50
2018-11-02T02:12:52.143Z,6.60
2018-11-02T02:15:20.886Z,6.60
2018-11-02T02:17:49.645Z,6.50
2018-11-02T02:20:18.316Z,6.50
2018-11-02T02:22:47.008Z,6.60
2018-11-02T02:25:15.753Z,6.60
2018-11-02T02:27:44.506Z,6.60
2018-11-02T02:30:14.116Z,6.60
2018-11-02T02:32:42.823Z,6.70
2018-11-02T02:35:11.871Z,6.70
2018-11-02T02:37:41.104Z,6.80
2018-11-02T02:40:11.659Z,7.10
2018-11-02T02:42:40.989Z,7.10
2018-11-02T02:45:11.874Z,7.10
2018-11-02T02:47:40.946Z,7.10
2018-11-02T02:50:12.062Z,7.20
2018-11-02T02:52:41.022Z,7.30
2018-11-02T02:55:09.793Z,7.20
2018-11-02T02:57:38.898Z,7.10
2018-11-02T03:00:10.645Z,7.10
2018-11-02T03:02:39.374Z,7.10
2018-11-02T03:05:08.316Z,7.10
2018-11-02T03:07:36.960Z,7.00
2018-11-02T03:10:07.558Z,6.80
2018-11-02T03:12:36.263Z,6.70
2018-11-02T03:15:05.371Z,6.60
2018-11-02T03:17:34.078Z,6.60
2018-11-02T03:20:02.775Z,6.50
2018-11-02T03:22:31.412Z,6.50
2018-11-02T03:25:00.042Z,6.50
2018-11-02T03:27:29.019Z,6.50
2018-11-02T03:29:57.753Z,6.60
2018-11-02T03:32:26.447Z,6.60
2018-11-02T03:34:55.105Z,6.70
2018-11-02T03:37:23.803Z,6.70
2018-11-02T03:39:52.640Z,6.80
2018-11-02T03:42:21.318Z,6.90
2018-11-02T03:44:50.012Z,6.80
2018-11-02T03:47:18.747Z,6.50
2018-11-02T03:49:47.385Z,6.40
2018-11-02T03:52:16.053Z,6.40
2018-11-02T03:54:44.772Z,6.30
2018-11-02T03:57:13.445Z,6.30
2018-11-02T03:59:42.304Z,6.20
2018-11-02T04:02:10.974Z,6.30
2018-11-02T04:04:39.651Z,6.30
2018-11-02T04:07:08.340Z,6.30
2018-11-02T04:09:37.128Z,6.30
2018-11-02T04:12:06.096Z,6.30
2018-11-02T04:14:34.821Z,6.30
2018-11-02T04:17:03.498Z,6.30
2018-11-02T04:19:32.233Z,6.10
2018-11-02T04:22:00.961Z,6.10
2018-11-02T04:24:29.584Z,6.10
2018-11-02T04:26:58.230Z,6.00
2018-11-02T04:29:26.934Z,5.90
2018-11-02T04:31:55.597Z,5.80
2018-11-02T04:34:25.002Z,5.60
2018-11-02T04:36:54.461Z,5.50
2018-11-02T04:39:23.206Z,5.50
2018-11-02T04:41:51.929Z,5.50
2018-11-02T04:44:20.592Z,5.40
2018-11-02T04:46:49.240Z,5.50
2018-11-02T04:49:17.961Z,5.70
2018-11-02T04:51:46.664Z,5.80
2018-11-02T04:54:15.402Z,5.80
2018-11-02T04:56:44.035Z,5.90
2018-11-02T04:59:12.739Z,6.00
2018-11-02T05:01:41.488Z,6.00
2018-11-02T05:04:10.202Z,5.90
2018-11-02T05:06:38.855Z,5.90
2018-11-02T05:09:09.434Z,5.80
2018-11-02T05:11:38.265Z,5.80
2018-11-02T05:14:07.063Z,5.80
2018-11-02T05:16:35.819Z,5.70
2018-11-02T05:19:09.460Z,5.70
2018-11-02T05:21:38.751Z,5.70
2018-11-02T05:24:07.357Z,5.70
2018-11-02T05:26:36.108Z,5.80
2018-11-02T05:29:05.274Z,5.80
2018-11-02T05:31:33.947Z,5.80
2018-11-02T05:34:02.686Z,5.70
2018-11-02T05:36:31.371Z,5.60
2018-11-02T05:39:00.172Z,5.60
2018-11-02T05:41:28.880Z,5.50
2018-11-02T05:43:57.610Z,5.40
2018-11-02T05:46:26.340Z,5.30
2018-11-02T05:48:55.038Z,5.20
2018-11-02T05:51:24.565Z,5.10
2018-11-02T05:53:53.334Z,5.10
2018-11-02T05:56:22.012Z,5.00
2018-11-02T05:58:50.726Z,4.90
2018-11-02T06:01:19.385Z,5.00
2018-11-02T06:03:48.503Z,5.00
2018-11-02T06:06:17.220Z,5.10
2018-11-02T06:08:45.986Z,5.00
2018-11-02T06:11:14.710Z,4.70
2018-11-02T06:13:43.521Z,4.60
2018-11-02T06:16:12.253Z,4.70
2018-11-02T06:18:40.927Z,4.60
2018-11-02T06:21:12.621Z,4.60
2018-11-02T06:23:41.403Z,4.50
2018-11-02T06:26:10.120Z,4.60
2018-11-02T06:28:39.177Z,4.60
2018-11-02T06:31:08.487Z,4.60
2018-11-02T06:33:37.267Z,4.50
2018-11-02T06:36:06.210Z,4.70
2018-11-02T06:38:34.978Z,4.70
2018-11-02T06:41:03.646Z,4.70
2018-11-02T06:43:32.429Z,4.50
2018-11-02T06:46:01.352Z,4.50
2018-11-02T06:48:30.097Z,4.50
2018-11-02T06:50:58.829Z,4.50
2018-11-02T06:53:27.514Z,4.50
2018-11-02T06:55:56.385Z,4.60
2018-11-02T06:58:25.054Z,4.50
2018-11-02T07:00:54.386Z,4.60
2018-11-02T07:03:23.141Z,4.60
2018-11-02T07:05:51.866Z,4.60
2018-11-02T07:08:20.769Z,4.50
2018-11-02T07:10:49.242Z,4.50
2018-11-02T07:13:17.982Z,4.50
2018-11-02T07:15:47.332Z,4.50
2018-11-02T07:18:16.060Z,4.40
2018-11-02T07:20:44.810Z,4.30
2018-11-02T07:23:13.431Z,4.40
2018-11-02T07:25:42.169Z,4.50
2018-11-02T07:28:10.807Z,4.40
2018-11-02T07:30:39.520Z,4.50
2018-11-02T07:33:08.259Z,4.60
2018-11-02T07:35:36.991Z,4.60
2018-11-02T07:38:05.961Z,4.90
2018-11-02T07:40:34.742Z,4.90
2018-11-02T07:43:03.421Z,5.00
2018-11-02T07:45:32.356Z,5.00
2018-11-02T07:48:01.033Z,4.80
2018-11-02T07:50:29.742Z,4.90
2018-11-02T07:52:58.406Z,4.90
2018-11-02T07:55:27.089Z,5.00
2018-11-02T07:57:55.823Z,5.10
2018-11-02T08:00:24.871Z,5.00
2018-11-02T08:02:53.573Z,5.00
2018-11-02T08:05:22.291Z,5.00
2018-11-02T08:07:51.039Z,5.10
2018-11-02T08:10:19.759Z,5.30
2018-11-02T08:12:48.842Z,5.30
2018-11-02T08:15:17.533Z,5.30
2018-11-02T08:17:46.863Z,5.40
2018-11-02T08:20:15.537Z,5.40
2018-11-02T08:22:44.400Z,5.40
2018-11-02T08:25:13.295Z,5.40
2018-11-02T08:27:42.348Z,5.40
2018-11-02T08:30:11.722Z,5.60
2018-11-02T08:32:40.720Z,5.80
2018-11-02T08:35:11.305Z,5.70
2018-11-02T08:37:40.352Z,5.80
2018-11-02T08:40:10.446Z,5.80
2018-11-02T08:42:39.145Z,5.80
2018-11-02T08:45:08.953Z,6.00
2018-11-02T08:47:37.929Z,5.90
2018-11-02T08:50:08.124Z,6.00
2018-11-02T08:52:36.818Z,6.00
2018-11-02T08:55:05.859Z,6.00
2018-11-02T08:57:34.639Z,5.90
2018-11-02T09:00:03.499Z,6.00
2018-11-02T09:02:32.193Z,6.20
2018-11-02T09:05:00.958Z,6.30
2018-11-02T09:07:29.629Z,6.40
2018-11-02T09:09:59.287Z,6.50
2018-11-02T09:12:28.167Z,6.70
2018-11-02T09:14:56.888Z,6.80
2018-11-02T09:17:25.663Z,7.00
2018-11-02T09:19:54.449Z,7.30
2018-11-02T09:22:23.284Z,7.60
2018-11-02T09:24:52.097Z,7.80
2018-11-02T09:27:20.753Z,8.00
2018-11-02T09:29:49.377Z,8.10
2018-11-02T09:32:18.202Z,8.10
2018-11-02T09:34:47.144Z,8.00
2018-11-02T09:37:15.964Z,8.20
2018-11-02T09:39:44.728Z,8.40
2018-11-02T09:42:13.421Z,8.50
2018-11-02T09:44:42.198Z,8.60
2018-11-02T09:47:10.937Z,8.50
2018-11-02T09:49:40.533Z,8.60
2018-11-02T09:52:09.675Z,8.60
2018-11-02T09:54:39.258Z,8.90
2018-11-02T09:57:08.005Z,9.30
2018-11-02T09:59:36.766Z,9.50
2018-11-02T10:02:05.575Z,9.70
2018-11-02T10:04:34.334Z,9.80
2018-11-02T10:07:03.054Z,9.90
2018-11-02T10:09:31.770Z,10.00
2018-11-02T10:12:00.569Z,10.10
2018-11-02T10:14:29.326Z,10.30
2018-11-02T10:16:58.127Z,10.70
2018-11-02T10:19:26.907Z,10.90
2018-11-02T10:21:55.721Z,10.90
2018-11-02T10:24:24.469Z,11.10
2018-11-02T10:26:53.346Z,11.30
2018-11-02T10:29:22.095Z,11.30
2018-11-02T10:31:51.046Z,11.50
2018-11-02T10:34:19.916Z,11.60
2018-11-02T10:36:49.110Z,11.60
2018-11-02T10:39:17.853Z,11.80
2018-11-02T10:41:49.356Z,12.00
2018-11-02T10:44:21.670Z,12.10
2018-11-02T10:46:50.432Z,12.40
2018-11-02T10:49:19.080Z,12.50
2018-11-02T10:51:47.883Z,12.60
2018-11-02T10:54:25.889Z,12.50
2018-11-02T10:57:01.265Z,12.60
2018-11-02T10:59:30.021Z,12.50
2018-11-02T11:02:04.107Z,12.40
2018-11-02T11:04:32.880Z,12.60
2018-11-02T11:07:01.620Z,12.50
2018-11-02T11:09:31.306Z,12.80
2018-11-02T11:12:00.206Z,13.20
2018-11-02T11:14:29.219Z,13.20
2018-11-02T11:16:57.947Z,13.40
2018-11-02T11:19:26.649Z,13.60
2018-11-02T11:21:55.371Z,13.60
2018-11-02T11:24:24.119Z,13.90
2018-11-02T11:26:52.938Z,14.00
2018-11-02T11:29:21.789Z,14.10
2018-11-02T11:31:50.541Z,14.10
2018-11-02T11:34:19.360Z,14.10
2018-11-02T11:36:48.142Z,14.30
2018-11-02T11:39:16.946Z,14.60
2018-11-02T11:41:46.115Z,14.50
2018-11-02T11:44:14.899Z,14.80
2018-11-02T11:46:44.294Z,15.00
2018-11-02T11:49:13.556Z,14.50
2018-11-02T11:51:42.278Z,14.20
2018-11-02T11:54:11.100Z,14.10
2018-11-02T11:56:39.862Z,14.10
2018-11-02T11:59:08.685Z,13.60
2018-11-02T12:01:37.336Z,13.50
2018-11-02T12:04:06.268Z,13.40
2018-11-02T12:06:35.049Z,13.30
2018-11-02T12:09:04.698Z,13.20
2018-11-02T12:11:33.539Z,13.10
2018-11-02T12:14:02.281Z,13.00
2018-11-02T12:16:31.115Z,13.00
2018-11-02T12:19:00.535Z,12.90
2018-11-02T12:21:29.461Z,12.90
2018-11-02T12:23:58.208Z,12.80
2018-11-02T12:26:27.081Z,12.80
2018-11-02T12:28:55.832Z,12.80
2018-11-02T12:31:24.539Z,12.70
2018-11-02T12:33:53.420Z,12.70
2018-11-02T12:36:22.573Z,12.70
2018-11-02T12:38:51.334Z,12.60
2018-11-02T12:41:20.200Z,12.60
2018-11-02T12:43:49.034Z,12.60
2018-11-02T12:46:18.940Z,12.50
2018-11-02T12:48:48.454Z,12.50
2018-11-02T12:51:17.074Z,12.50
2018-11-02T12:53:45.900Z,12.60
2018-11-02T12:56:14.786Z,12.90
2018-11-02T12:58:43.579Z,13.30
2018-11-02T13:01:12.397Z,13.60
2018-11-02T13:03:41.109Z,13.90
2018-11-02T13:06:09.856Z,14.40
2018-11-02T13:08:38.669Z,14.20
2018-11-02T13:11:07.557Z,14.40
2018-11-02T13:13:36.395Z,14.10
2018-11-02T13:16:05.294Z,14.00
2018-11-02T13:18:34.581Z,14.50
2018-11-02T13:21:03.299Z,14.90
2018-11-02T13:23:32.109Z,15.00
2018-11-02T13:26:00.888Z,14.60
2018-11-02T13:28:29.519Z,14.30
2018-11-02T13:30:58.451Z,14.20
2018-11-02T13:33:27.059Z,14.10
2018-11-02T13:35:55.900Z,14.20
2018-11-02T13:38:24.746Z,14.40
2018-11-02T13:40:53.502Z,14.60
2018-11-02T13:43:22.245Z,14.80
2018-11-02T13:45:51.103Z,14.60
2018-11-02T13:48:19.928Z,14.50
2018-11-02T13:50:48.690Z,14.10
2018-11-02T13:53:17.440Z,13.90
2018-11-02T13:55:46.280Z,13.80
2018-11-02T13:58:15.126Z,13.80
2018-11-02T14:00:43.871Z,13.80
2018-11-02T14:03:12.631Z,13.70
2018-11-02T14:05:41.349Z,13.60
2018-11-02T14:08:10.193Z,13.60
2018-11-02T14:10:38.909Z,13.60
2018-11-02T14:13:07.690Z,13.60
2018-11-02T14:15:36.385Z,13.40
2018-11-02T14:18:05.462Z,13.30
2018-11-02T14:20:34.142Z,13.20
2018-11-02T14:23:02.901Z,13.20
2018-11-02T14:25:31.622Z,13.10
2018-11-02T14:28:00.380Z,13.10
2018-11-02T14:30:29.119Z,13.10
2018-11-02T14:32:57.926Z,13.10
2018-11-02T14:35:26.788Z,13.10
2018-11-02T14:37:55.543Z,13.10
2018-11-02T14:40:24.540Z,13.20
2018-11-02T14:42:53.414Z,13.30
2018-11-02T14:45:29.077Z,13.30
2018-11-02T14:47:57.962Z,13.40
2018-11-02T14:50:26.739Z,13.40
2018-11-02T14:52:55.540Z,13.30
2018-11-02T14:55:24.348Z,13.30
2018-11-02T14:57:53.066Z,13.20
2018-11-02T15:00:22.972Z,13.20
2018-11-02T15:02:52.050Z,13.40
2018-11-02T15:05:21.000Z,13.40
2018-11-02T15:07:49.760Z,13.30
2018-11-02T15:10:18.562Z,13.30
2018-11-02T15:12:47.373Z,13.20
2018-11-02T15:15:16.189Z,13.20
2018-11-02T15:17:45.028Z,13.10
2018-11-02T15:20:14.798Z,13.10
2018-11-02T15:22:43.640Z,13.00
2018-11-02T15:25:12.374Z,13.00
2018-11-02T15:27:41.103Z,12.90
2018-11-02T15:30:11.744Z,12.80
2018-11-02T15:32:40.818Z,12.70
2018-11-02T15:35:10.562Z,12.70
2018-11-02T15:37:39.761Z,12.60
2018-11-02T15:40:10.104Z,12.50
2018-11-02T15:42:38.835Z,12.40
2018-11-02T15:45:09.767Z,12.30
2018-11-02T15:47:38.616Z,12.20
2018-11-02T15:50:08.559Z,12.10
2018-11-02T15:52:37.916Z,12.10
2018-11-02T15:55:07.752Z,11.90
2018-11-02T15:57:36.878Z,11.80
2018-11-02T16:00:13.817Z,11.70
2018-11-02T16:02:42.616Z,11.60
2018-11-02T16:05:11.588Z,11.50
2018-11-02T16:07:40.888Z,11.50
2018-11-02T16:10:10.888Z,11.40
2018-11-02T16:12:39.888Z,11.00
2018-11-02T16:15:09.421Z,11.00
2018-11-02T16:17:38.649Z,11.00
2018-11-02T16:20:09.160Z,11.00
2018-11-02T16:22:37.925Z,10.80
2018-11-02T16:25:07.841Z,10.60
2018-11-02T16:27:36.786Z,10.50
2018-11-02T16:30:05.786Z,10.20
2018-11-02T16:32:34.708Z,10.20
2018-11-02T16:35:03.555Z,10.30
2018-11-02T16:37:32.409Z,10.10
2018-11-02T16:40:01.168Z,10.10
2018-11-02T16:42:29.948Z,10.20
2018-11-02T16:44:58.798Z,10.20
2018-11-02T16:47:27.608Z,10.10
2018-11-02T16:49:56.492Z,10.10
2018-11-02T16:52:25.301Z,10.20
2018-11-02T16:54:54.449Z,10.20
2018-11-02T16:57:23.299Z,10.00
2018-11-02T16:59:52.146Z,10.00
2018-11-02T17:02:20.831Z,10.00
2018-11-02T17:04:49.701Z,9.80
2018-11-02T17:07:18.436Z,9.70
2018-11-02T17:09:47.545Z,9.50
2018-11-02T17:12:16.237Z,9.50
2018-11-02T17:14:45.131Z,9.40
2018-11-02T17:17:14.024Z,9.30
2018-11-02T17:19:42.943Z,9.30
2018-11-02T17:22:11.929Z,9.30
2018-11-02T17:24:40.923Z,9.20
2018-11-02T17:27:09.709Z,9.10
2018-11-02T17:29:38.449Z,9.20
2018-11-02T17:32:07.521Z,9.20
2018-11-02T17:34:36.379Z,9.10
2018-11-02T17:39:53.144Z,8.80
2018-11-02T17:42:21.923Z,9.00
2018-11-02T17:44:50.745Z,9.00
2018-11-02T17:47:19.507Z,8.80
2018-11-02T17:49:48.300Z,8.80
2018-11-02T17:52:17.162Z,8.70
2018-11-02T17:54:46.694Z,8.80
2018-11-02T17:57:15.637Z,8.70
2018-11-02T17:59:44.441Z,8.60
2018-11-02T18:02:13.160Z,8.60
2018-11-02T18:04:41.923Z,8.60
2018-11-02T18:07:10.669Z,8.60
2018-11-02T18:09:40.673Z,8.70
2018-11-02T18:12:09.487Z,8.70
2018-11-02T18:14:38.345Z,8.50
2018-11-02T18:17:07.233Z,8.40
2018-11-02T18:19:36.024Z,8.40
2018-11-02T18:22:05.525Z,8.50
2018-11-02T18:24:34.287Z,8.50
2018-11-02T18:27:02.995Z,8.50
2018-11-02T18:29:31.727Z,8.40
2018-11-02T18:32:00.491Z,8.40
2018-11-02T18:34:29.194Z,8.40
2018-11-02T18:36:58.297Z,8.40
2018-11-02T18:39:27.053Z,8.40
2018-11-02T18:41:55.896Z,8.50
2018-11-02T18:44:24.608Z,8.40
2018-11-02T18:46:53.445Z,8.40
2018-11-02T18:49:22.335Z,8.50
2018-11-02T18:51:51.124Z,8.40
2018-11-02T18:54:19.916Z,8.40
2018-11-02T18:56:48.750Z,8.30
2018-11-02T18:59:17.664Z,8.30
2018-11-02T19:01:46.435Z,8.30
2018-11-02T19:04:15.541Z,8.40
2018-11-02T19:06:44.405Z,8.40
2018-11-02T19:09:13.651Z,8.50
2018-11-02T19:11:42.469Z,8.50
2018-11-02T19:14:11.154Z,8.50
2018-11-02T19:16:40.019Z,8.50
2018-11-02T19:19:09.560Z,8.50
2018-11-02T19:21:38.428Z,8.40
2018-11-02T19:24:07.216Z,8.40
2018-11-02T19:26:35.999Z,8.40
2018-11-02T19:29:05.378Z,8.40
2018-11-02T19:31:34.333Z,8.40
2018-11-02T19:34:03.261Z,8.40
2018-11-02T19:36:32.340Z,8.40
2018-11-02T19:39:01.114Z,8.30
2018-11-02T19:41:30.451Z,8.10
2018-11-02T19:43:59.292Z,8.00
2018-11-02T19:46:28.222Z,8.00
2018-11-02T19:48:57.031Z,8.00
2018-11-02T19:51:25.784Z,7.80
2018-11-02T19:53:54.526Z,7.70
2018-11-02T19:56:23.382Z,7.70
2018-11-02T19:58:52.152Z,7.80
2018-11-02T20:01:20.959Z,7.90
2018-11-02T20:03:49.751Z,7.90
2018-11-02T20:06:18.731Z,7.90
2018-11-02T20:08:47.467Z,7.80
2018-11-02T20:11:16.205Z,7.70
2018-11-02T20:13:45.022Z,7.60
2018-11-02T20:16:13.803Z,7.60
2018-11-02T20:18:42.602Z,7.60
2018-11-02T20:21:11.290Z,7.70
2018-11-02T20:23:40.355Z,7.80
2018-11-02T20:26:09.069Z,7.80
2018-11-02T20:28:37.891Z,7.70
2018-11-02T20:31:06.652Z,7.70
2018-11-02T20:33:35.430Z,7.80
2018-11-02T20:36:04.255Z,7.80
2018-11-02T20:38:33.036Z,7.70
2018-11-02T20:41:01.794Z,7.60
2018-11-02T20:43:30.463Z,7.50
2018-11-02T20:46:00.675Z,7.60
2018-11-02T20:48:29.402Z,7.70
2018-11-02T20:50:58.177Z,7.80
2018-11-02T20:53:26.986Z,7.80
2018-11-02T20:55:55.746Z,7.80
2018-11-02T20:58:24.485Z,7.90
2018-11-02T21:00:55.425Z,7.90
2018-11-02T21:03:24.160Z,7.80
2018-11-02T21:05:52.963Z,7.80
2018-11-02T21:08:21.734Z,7.80
2018-11-02T21:10:50.421Z,7.70
2018-11-02T21:13:25.807Z,7.70
2018-11-02T21:15:54.620Z,7.80
2018-11-02T21:18:24.092Z,7.80
2018-11-02T21:20:52.898Z,7.90
2018-11-02T21:23:21.920Z,7.90
2018-11-02T21:25:50.706Z,7.90
2018-11-02T21:28:20.066Z,7.90
2018-11-02T21:30:48.789Z,7.80
2018-11-02T21:33:17.548Z,7.90
2018-11-02T21:35:46.318Z,8.00
2018-11-02T21:38:15.230Z,7.90
2018-11-02T21:40:43.986Z,7.90
2018-11-02T21:43:12.844Z,7.90
2018-11-02T21:45:41.559Z,7.90
2018-11-02T21:48:10.185Z,7.90
2018-11-02T21:50:38.980Z,7.90
2018-11-02T21:53:07.967Z,7.90
2018-11-02T21:55:36.721Z,7.80
2018-11-02T21:58:05.524Z,7.80
2018-11-02T22:00:34.619Z,7.60
2018-11-02T22:03:03.288Z,7.50
2018-11-02T22:05:31.955Z,7.60
2018-11-02T22:08:00.737Z,7.60
2018-11-02T22:10:29.418Z,7.50
2018-11-02T22:12:58.143Z,7.60
2018-11-02T22:15:26.848Z,7.60
2018-11-02T22:17:55.745Z,7.60
2018-11-02T22:20:24.462Z,7.70
2018-11-02T22:22:53.269Z,7.80
2018-11-02T22:25:22.047Z,7.80
2018-11-02T22:27:50.662Z,7.90
2018-11-02T22:30:19.413Z,7.80
2018-11-02T22:32:48.242Z,7.80
2018-11-02T22:35:17.059Z,7.80
2018-11-02T22:37:46.070Z,7.80
2018-11-02T22:40:15.226Z,7.80
2018-11-02T22:42:44.479Z,7.80
2018-11-02T22:45:14.692Z,7.80
2018-11-02T22:47:47.612Z,7.70
2018-11-02T22:50:16.289Z,7.70
2018-11-02T22:52:44.995Z,7.70
2018-11-02T22:55:21.560Z,7.70
2018-11-02T22:57:50.342Z,7.70
2018-11-02T23:00:19.910Z,7.80
2018-11-02T23:02:49.258Z,7.80
2018-11-02T23:05:17.974Z,7.80
2018-11-02T23:07:46.916Z,7.80
2018-11-02T23:10:15.638Z,7.70
2018-11-02T23:12:44.324Z,7.70
2018-11-02T23:15:13.373Z,7.60
2018-11-02T23:17:42.047Z,7.60
2018-11-02T23:20:12.885Z,7.60
2018-11-02T23:22:41.625Z,7.60
2018-11-02T23:25:11.021Z,7.50
2018-11-02T23:27:40.360Z,7.60
2018-11-02T23:30:09.999Z,7.50
2018-11-02T23:32:38.626Z,7.60
2018-11-02T23:35:07.660Z,7.60
2018-11-02T23:37:36.428Z,7.60
2018-11-02T23:40:05.725Z,7.60
2018-11-02T23:42:34.452Z,7.60
2018-11-02T23:45:03.358Z,7.50
2018-11-02T23:47:31.932Z,7.40
2018-11-02T23:50:00.591Z,7.40
2018-11-02T23:52:29.345Z,7.30
2018-11-02T23:54:58.778Z,7.30
2018-11-02T23:57:27.384Z,7.30
2018-11-02T23:59:56.046Z,7.40
